Time;durP1;ratioP1;P1;durP2;ratioP2;P2;SDS_P1;SDS_P2;PMS_P1;PMS_P2;Temp;Humidity;BMP_temperature;BMP_pressure;BME280_temperature;BME280_humidity;BME280_pressure;Samples;Min_cycle;Max_cycle;Signal;HPM_P1;HPM_P2
2024/02/28 05:50:24;;;;;;;35.88;22.58;;;7.10;94.10;;;;;;4923160;29;20299;-92
2024/02/28 06:17:37;;;;;;;34.97;23.60;;;6.70;95.30;;;;;;4979227;28;20188;-95
2024/02/28 06:30:28;;;;;;;37.08;23.88;;;6.40;95.40;;;;;;4962336;29;20188;-93
2024/02/28 07:20:15;;;;;;;41.63;25.40;;;6.90;93.90;;;;;;5119687;23;20703;-91
2024/02/28 07:22:44;;;;;;;42.28;26.02;;;6.90;93.80;;;;;;4936187;29;20208;-90
2024/02/28 07:25:11;;;;;;;39.22;25.10;;;7.00;94.00;;;;;;4954834;28;20196;-90
2024/02/28 07:27:38;;;;;;;38.65;24.58;;;7.10;93.30;;;;;;4969962;28;20224;-92
2024/02/28 07:30:06;;;;;;;43.35;25.30;;;7.00;93.30;;;;;;4962803;29;20211;-93
2024/02/28 07:32:34;;;;;;;40.22;24.90;;;7.00;93.20;;;;;;4963100;28;20205;-92
2024/02/28 07:35:03;;;;;;;45.65;28.80;;;6.90;93.10;;;;;;4946021;29;20308;-90
2024/02/28 07:37:32;;;;;;;50.00;28.17;;;6.90;93.50;;;;;;4939963;29;20208;-88
2024/02/28 07:39:58;;;;;;;41.45;26.25;;;7.00;93.60;;;;;;4957176;29;20216;-90
2024/02/28 07:42:25;;;;;;;48.78;26.45;;;6.90;93.10;;;;;;4957431;29;20201;-90
2024/02/28 07:48:19;;;;;;;44.50;26.10;;;6.90;93.10;;;;;;4957177;28;20192;-87
2024/02/28 07:54:14;;;;;;;43.50;26.00;;;6.80;93.10;;;;;;4953950;29;20456;-88
2024/02/28 07:56:41;;;;;;;55.08;26.88;;;6.70;93.30;;;;;;4957940;29;20702;-88
2024/02/28 07:59:08;;;;;;;45.25;25.92;;;6.70;93.20;;;;;;4929108;29;20202;-89
2024/02/28 08:01:36;;;;;;;43.95;25.55;;;7.00;93.50;;;;;;4919240;29;20217;-88
2024/02/28 08:04:03;;;;;;;43.58;26.65;;;7.00;92.80;;;;;;4937435;29;20645;-88
2024/02/28 08:06:30;;;;;;;43.08;25.70;;;7.00;92.40;;;;;;4905178;29;20261;-93
2024/02/28 08:08:57;;;;;;;43.60;25.27;;;7.00;93.00;;;;;;4906579;29;20227;-93
2024/02/28 08:11:26;;;;;;;42.67;26.08;;;7.00;93.40;;;;;;4948251;29;20221;-93
2024/02/28 08:13:52;;;;;;;44.10;25.83;;;7.30;92.90;;;;;;4922266;29;20214;-90
2024/02/28 08:16:19;;;;;;;42.25;25.55;;;7.20;92.20;;;;;;4938558;29;20194;-92
2024/02/28 08:19:06;;;;;;;48.35;27.48;;;7.30;92.60;;;;;;4922465;29;20190;-92
2024/02/28 08:21:33;;;;;;;48.70;26.92;;;7.20;91.70;;;;;;4913555;29;20214;-93
2024/02/28 08:24:03;;;;;;;48.90;25.58;;;7.10;91.90;;;;;;4938051;29;20296;-93
2024/02/28 08:26:31;;;;;;;44.30;26.20;;;7.20;93.00;;;;;;4938379;29;20202;-90
2024/02/28 08:28:58;;;;;;;45.90;26.20;;;7.20;92.10;;;;;;4936797;29;20194;-88
2024/02/28 08:31:27;;;;;;;40.70;25.55;;;7.20;92.10;;;;;;4919691;29;20651;-87
2024/02/28 08:33:55;;;;;;;45.95;26.73;;;7.20;92.30;;;;;;4934204;29;20210;-88
2024/02/28 08:36:22;;;;;;;43.60;26.73;;;7.40;92.20;;;;;;4934112;29;20645;-87
2024/02/28 08:38:48;;;;;;;44.85;26.50;;;7.30;92.00;;;;;;4926617;29;20210;-88
2024/02/28 08:41:17;;;;;;;41.15;26.13;;;7.40;91.90;;;;;;4918312;29;20203;-89
2024/02/28 08:44:09;;;;;;;43.05;25.90;;;7.30;91.40;;;;;;4918581;29;20638;-89
2024/02/28 08:56:51;;;;;;;41.25;26.30;;;7.20;92.00;;;;;;4924664;29;20252;-88
2024/02/28 08:59:20;;;;;;;49.40;28.27;;;7.10;92.30;;;;;;4934442;29;20210;-89
2024/02/28 09:01:47;;;;;;;42.30;27.08;;;7.00;92.20;;;;;;4931495;29;20210;-90
2024/02/28 09:04:14;;;;;;;44.40;27.90;;;7.20;92.30;;;;;;4940519;29;20213;-88
2024/02/28 09:06:44;;;;;;;43.67;25.67;;;7.30;92.20;;;;;;4941291;29;20192;-87
2024/02/28 09:09:11;;;;;;;44.00;26.00;;;7.50;91.60;;;;;;4941800;29;20202;-90
2024/02/28 09:11:38;;;;;;;42.17;26.67;;;7.60;90.20;;;;;;4940139;29;20214;-90
2024/02/28 09:14:05;;;;;;;39.20;25.70;;;7.80;90.20;;;;;;4940063;29;20645;-90
2024/02/28 09:17:03;;;;;;;41.58;24.70;;;7.90;90.20;;;;;;4939273;29;20708;-87
2024/02/28 09:29:45;;;;;;;52.70;28.05;;;7.90;90.20;;;;;;4935809;29;20300;-92
2024/02/28 09:32:24;;;;;;;55.30;28.08;;;7.70;90.20;;;;;;4927276;29;20213;-89
2024/02/28 09:34:50;;;;;;;48.65;28.90;;;7.50;90.10;;;;;;4914804;29;20225;-89
2024/02/28 09:40:02;;;;;;;48.72;28.92;;;7.50;90.20;;;;;;4873268;29;20207;-88
2024/02/28 09:42:29;;;;;;;49.50;29.15;;;7.40;90.80;;;;;;4916141;29;20218;-88
2024/02/28 09:45:00;;;;;;;47.10;28.77;;;7.40;90.90;;;;;;4924058;29;20206;-88
2024/02/28 09:47:35;;;;;;;57.20;30.63;;;7.30;91.30;;;;;;4932341;29;20217;-88
2024/02/28 09:50:03;;;;;;;51.45;29.35;;;7.30;91.50;;;;;;4936986;29;20201;-89
2024/02/28 09:52:30;;;;;;;50.97;29.45;;;7.30;91.40;;;;;;4937923;29;20206;-94
2024/02/28 09:54:58;;;;;;;51.10;28.33;;;7.30;91.30;;;;;;4927917;29;20230;-91
2024/02/28 09:57:29;;;;;;;45.72;26.80;;;7.50;91.30;;;;;;5234641;23;20238;-90
2024/02/28 09:59:57;;;;;;;44.72;26.45;;;7.70;91.40;;;;;;4969545;28;20243;-92
2024/02/28 10:02:25;;;;;;;40.08;26.10;;;8.00;90.30;;;;;;4957179;28;20209;-91
2024/02/28 10:04:54;;;;;;;44.08;26.80;;;8.40;88.70;;;;;;4970996;28;20193;-92
2024/02/28 10:07:21;;;;;;;52.42;29.25;;;8.60;86.50;;;;;;4961181;28;20208;-90
2024/02/28 10:09:48;;;;;;;58.22;29.58;;;8.50;83.80;;;;;;4960838;28;20197;-90
2024/02/28 10:23:35;;;;;;;42.83;26.98;;;8.50;83.80;;;;;;4980097;28;20639;-89
2024/02/28 10:29:28;;;;;;;42.20;24.80;;;8.90;82.90;;;;;;4958405;29;20208;-91
2024/02/28 10:31:56;;;;;;;45.55;27.38;;;9.10;79.70;;;;;;4958496;29;20220;-91
2024/02/28 10:34:23;;;;;;;45.53;27.30;;;9.00;77.20;;;;;;4941043;29;20201;-90
2024/02/28 10:50:38;;;;;;;45.88;26.58;;;8.70;80.40;;;;;;4957918;29;20182;-91
2024/02/28 10:59:03;;;;;;;39.28;25.67;;;8.40;80.70;;;;;;5318222;23;20233;-91
2024/02/28 11:01:31;;;;;;;39.67;25.30;;;8.20;81.20;;;;;;4957659;29;20193;-90
2024/02/28 11:03:58;;;;;;;38.47;25.20;;;8.20;81.00;;;;;;4964746;28;20221;-91
2024/02/28 11:06:27;;;;;;;37.50;25.08;;;8.20;80.70;;;;;;4936575;29;20214;-90
2024/02/28 11:08:56;;;;;;;38.13;24.52;;;8.10;81.40;;;;;;4946979;29;20678;-91
2024/02/28 11:11:23;;;;;;;39.25;26.30;;;8.00;80.80;;;;;;4957604;29;20201;-90
2024/02/28 11:13:54;;;;;;;39.17;25.95;;;8.00;81.30;;;;;;4945705;29;20194;-91
2024/02/28 11:16:28;;;;;;;39.10;24.88;;;8.00;81.50;;;;;;4949920;29;20224;-91
2024/02/28 11:18:55;;;;;;;40.60;24.50;;;8.10;81.40;;;;;;4940300;29;20232;-91
2024/02/28 11:21:45;;;;;;;37.95;24.73;;;8.20;81.30;;;;;;4938865;29;20198;-91
2024/02/28 11:24:30;;;;;;;37.33;24.40;;;8.30;80.90;;;;;;4937679;28;20208;-90
2024/02/28 11:26:57;;;;;;;36.00;23.75;;;8.30;81.10;;;;;;4938125;29;20190;-90
2024/02/28 11:36:55;;;;;;;37.85;24.10;;;8.50;79.80;;;;;;4937739;29;20265;-89
2024/02/28 11:43:13;;;;;;;40.90;26.25;;;8.40;79.10;;;;;;4937861;29;20170;-89
2024/02/28 11:45:42;;;;;;;38.25;25.52;;;8.20;80.40;;;;;;4944294;29;20202;-88
2024/02/28 11:48:09;;;;;;;41.03;26.88;;;8.00;81.50;;;;;;4952918;28;20232;-87
2024/02/28 11:50:38;;;;;;;39.50;25.73;;;8.00;82.80;;;;;;4950017;28;20197;-88
2024/02/28 11:53:06;;;;;;;41.47;26.60;;;8.00;83.30;;;;;;4939076;28;20206;-89
2024/02/28 11:55:33;;;;;;;41.60;26.80;;;8.00;82.80;;;;;;4937844;29;20235;-88
2024/02/28 11:58:00;;;;;;;39.67;26.23;;;8.10;82.50;;;;;;4944710;29;20217;-89
2024/02/28 12:00:28;;;;;;;36.53;24.70;;;8.20;81.70;;;;;;4939284;29;20284;-88
2024/02/28 12:03:06;;;;;;;39.55;26.23;;;8.20;81.80;;;;;;4948141;28;20552;-89
2024/02/28 12:05:32;;;;;;;42.80;26.08;;;7.90;81.70;;;;;;4969857;28;20615;-90
2024/02/28 12:08:00;;;;;;;38.25;25.33;;;7.80;82.90;;;;;;4959698;28;20203;-91
2024/02/28 12:11:05;;;;;;;38.90;25.90;;;7.80;83.50;;;;;;4957409;29;20663;-92
2024/02/28 12:13:32;;;;;;;43.13;26.77;;;7.80;83.70;;;;;;4957266;29;20288;-92
2024/02/28 12:16:31;;;;;;;39.60;26.02;;;7.60;84.10;;;;;;4931234;29;20214;-91
2024/02/28 12:19:00;;;;;;;40.78;25.90;;;7.60;85.00;;;;;;4946164;29;20205;-91
2024/02/28 12:21:27;;;;;;;42.42;26.30;;;7.50;86.40;;;;;;4956608;28;20205;-90
2024/02/28 12:23:54;;;;;;;43.22;27.52;;;7.40;85.70;;;;;;4956758;28;20632;-94
2024/02/28 12:26:40;;;;;;;45.53;27.80;;;7.40;86.40;;;;;;4954176;28;20211;-91
2024/02/28 12:29:07;;;;;;;41.17;26.20;;;7.40;86.80;;;;;;4940683;29;20216;-88
2024/02/28 12:31:41;;;;;;;41.53;26.92;;;7.40;87.30;;;;;;4944388;29;20201;-91
2024/02/28 12:37:41;;;;;;;43.75;26.80;;;7.60;86.60;;;;;;4951154;29;20182;-89
2024/02/28 12:44:17;;;;;;;39.90;26.17;;;7.60;86.20;;;;;;4945756;28;20196;-90
2024/02/28 12:53:57;;;;;;;40.83;26.13;;;7.90;83.80;;;;;;4956736;29;20181;-90
2024/02/28 13:32:40;;;;;;;37.70;24.15;;;8.30;79.90;;;;;;5391587;23;20671;-88
2024/02/28 13:35:34;;;;;;;39.90;25.33;;;8.20;80.90;;;;;;4955910;29;20204;-87
2024/02/28 13:38:01;;;;;;;36.40;24.13;;;8.00;81.60;;;;;;4947064;29;20201;-87
2024/02/28 13:40:28;;;;;;;36.63;24.10;;;7.90;82.90;;;;;;4952919;28;20256;-86
2024/02/28 13:42:55;;;;;;;37.67;24.77;;;7.90;82.00;;;;;;4944135;28;20653;-89
2024/02/28 13:45:22;;;;;;;35.80;23.95;;;7.90;82.30;;;;;;4953712;28;20202;-87
2024/02/28 13:47:50;;;;;;;38.10;24.60;;;7.80;82.60;;;;;;4956134;28;20666;-88
2024/02/28 13:50:17;;;;;;;34.30;23.58;;;7.80;83.50;;;;;;4955846;28;20209;-87
2024/02/28 13:52:43;;;;;;;35.15;22.88;;;7.80;82.90;;;;;;4958567;29;20201;-87
2024/02/28 13:55:10;;;;;;;36.25;23.02;;;8.00;81.60;;;;;;4941770;29;20186;-87
2024/02/28 13:58:00;;;;;;;34.70;23.48;;;8.10;81.10;;;;;;4941863;29;20229;-87
2024/02/28 14:07:52;;;;;;;33.92;21.80;;;8.10;80.60;;;;;;4958443;29;20272;-88
2024/02/28 14:10:53;;;;;;;36.28;21.98;;;8.00;81.00;;;;;;4959187;29;20201;-87
2024/02/28 14:13:20;;;;;;;31.30;21.75;;;8.10;80.10;;;;;;4957131;28;20204;-89
2024/02/28 14:15:46;;;;;;;35.90;23.90;;;8.10;80.10;;;;;;4957535;29;20232;-89
2024/02/28 14:18:14;;;;;;;36.13;22.75;;;8.00;80.40;;;;;;4956295;29;20201;-87
2024/02/28 14:20:42;;;;;;;34.97;22.80;;;7.90;81.40;;;;;;4952041;28;20202;-86
2024/02/28 14:23:10;;;;;;;36.58;24.08;;;7.90;81.70;;;;;;4958907;28;20201;-87
2024/02/28 14:25:37;;;;;;;36.30;24.23;;;7.80;82.10;;;;;;4956649;28;20197;-87
2024/02/28 14:28:04;;;;;;;39.28;23.90;;;7.70;83.30;;;;;;4955017;28;20201;-88
2024/02/28 14:30:31;;;;;;;35.08;23.33;;;7.70;83.90;;;;;;4954296;28;20209;-88
2024/02/28 14:32:58;;;;;;;33.35;22.65;;;7.80;83.40;;;;;;4956726;28;20575;-88
2024/02/28 14:35:26;;;;;;;32.63;22.35;;;7.80;83.30;;;;;;4957586;28;20198;-87
2024/02/28 14:37:54;;;;;;;35.00;22.35;;;7.90;82.80;;;;;;4955999;29;20197;-88
2024/02/28 14:40:22;;;;;;;37.20;21.65;;;7.90;82.70;;;;;;4952396;28;20961;-88
2024/02/28 14:42:49;;;;;;;34.20;23.60;;;8.00;82.70;;;;;;4941607;29;20241;-86
2024/02/28 14:45:16;;;;;;;36.72;23.80;;;7.90;83.40;;;;;;4957765;29;20239;-84
2024/02/28 14:47:44;;;;;;;37.83;24.27;;;7.90;84.00;;;;;;4955191;29;20205;-85
2024/02/28 14:50:11;;;;;;;34.42;23.05;;;7.90;84.20;;;;;;4956601;29;20296;-86
2024/02/28 14:52:38;;;;;;;34.08;22.73;;;7.90;84.50;;;;;;4957878;29;20205;-86
2024/02/28 14:55:06;;;;;;;35.58;22.77;;;7.90;84.80;;;;;;4944579;29;20214;-87
2024/02/28 14:57:37;;;;;;;36.50;24.27;;;7.90;84.40;;;;;;4963244;23;20587;-87
2024/02/28 15:00:08;;;;;;;34.30;22.70;;;7.90;84.00;;;;;;4953456;28;20742;-88
2024/02/28 15:02:37;;;;;;;34.13;23.38;;;7.90;83.70;;;;;;4952754;29;20193;-89
2024/02/28 15:05:06;;;;;;;37.03;23.70;;;7.90;84.60;;;;;;4957501;29;20198;-91
2024/02/28 15:07:34;;;;;;;35.67;23.27;;;7.90;83.20;;;;;;4934847;29;20223;-88
2024/02/28 15:10:03;;;;;;;35.17;23.20;;;8.00;82.90;;;;;;4949835;29;20205;-87
2024/02/28 15:12:32;;;;;;;34.83;23.85;;;7.90;82.60;;;;;;4937007;29;20256;-87
2024/02/28 15:15:01;;;;;;;34.55;23.25;;;7.90;83.50;;;;;;4939162;29;20212;-88
2024/02/28 15:17:28;;;;;;;32.90;21.98;;;7.80;83.80;;;;;;4953076;29;20221;-86
2024/02/28 15:19:55;;;;;;;36.13;23.17;;;7.80;83.30;;;;;;4934582;29;20208;-86
2024/02/28 15:22:22;;;;;;;31.27;21.90;;;7.70;84.10;;;;;;4951844;29;20296;-87
2024/02/28 15:24:49;;;;;;;33.92;23.52;;;7.70;84.00;;;;;;4952408;28;20225;-86
2024/02/28 15:27:16;;;;;;;35.10;23.55;;;7.70;83.70;;;;;;4953513;28;20690;-86
2024/02/28 15:29:43;;;;;;;35.67;23.58;;;7.60;83.80;;;;;;4954525;29;20656;-87
2024/02/28 15:32:11;;;;;;;33.42;22.95;;;7.60;84.40;;;;;;4952331;29;20202;-86
2024/02/28 15:34:39;;;;;;;31.38;22.05;;;7.60;83.60;;;;;;4938980;29;20201;-87
2024/02/28 15:37:06;;;;;;;34.55;22.30;;;7.70;83.80;;;;;;4956232;29;20221;-87
2024/02/28 15:39:33;;;;;;;36.72;23.00;;;7.80;83.30;;;;;;4956516;29;20205;-86
2024/02/28 15:42:00;;;;;;;38.90;22.95;;;7.80;82.20;;;;;;4956689;29;20193;-85
2024/02/28 15:45:00;;;;;;;31.00;21.90;;;7.70;83.10;;;;;;4956720;29;20186;-87
2024/02/28 15:48:05;;;;;;;34.72;23.05;;;7.60;82.90;;;;;;4956602;29;20200;-85
2024/02/28 15:50:33;;;;;;;35.20;23.15;;;7.60;83.20;;;;;;4956174;29;20203;-84
2024/02/28 15:53:00;;;;;;;36.83;23.08;;;7.50;84.40;;;;;;4954754;29;20209;-84
2024/02/28 15:55:27;;;;;;;34.97;23.20;;;7.60;84.20;;;;;;4955441;28;20292;-84
2024/02/28 15:57:55;;;;;;;38.20;24.67;;;7.60;84.20;;;;;;4932299;28;20331;-85
2024/02/28 16:00:22;;;;;;;33.95;22.30;;;7.50;84.10;;;;;;4931550;29;20665;-86
2024/02/28 16:02:49;;;;;;;34.28;22.85;;;7.60;83.90;;;;;;4937495;29;20198;-85
2024/02/28 16:05:16;;;;;;;33.25;22.40;;;7.60;83.20;;;;;;4936028;29;20627;-85
2024/02/28 16:07:44;;;;;;;32.83;22.38;;;7.70;83.40;;;;;;4933518;29;20206;-85
2024/02/28 16:10:11;;;;;;;34.05;23.35;;;7.70;82.90;;;;;;4943564;29;20216;-86
2024/02/28 16:12:38;;;;;;;33.28;23.50;;;7.70;83.20;;;;;;4935731;29;20209;-85
2024/02/28 16:15:07;;;;;;;32.40;21.88;;;7.60;83.90;;;;;;4935572;29;20206;-85
2024/02/28 16:17:34;;;;;;;36.00;23.17;;;7.70;82.70;;;;;;4937960;29;20276;-86
2024/02/28 16:20:02;;;;;;;33.88;21.88;;;7.70;83.00;;;;;;4936793;29;20555;-87
2024/02/28 16:22:29;;;;;;;34.83;23.33;;;7.70;82.70;;;;;;4936038;29;20200;-85
2024/02/28 16:24:57;;;;;;;33.03;21.40;;;7.70;82.20;;;;;;4933272;29;20206;-84
2024/02/28 16:27:24;;;;;;;30.15;21.55;;;7.80;82.20;;;;;;4931928;29;20206;-87
2024/02/28 16:29:51;;;;;;;31.88;23.05;;;7.70;81.30;;;;;;4939917;29;20208;-86
2024/02/28 16:32:18;;;;;;;36.15;22.60;;;7.60;81.90;;;;;;4918132;29;20684;-85
2024/02/28 16:34:45;;;;;;;33.85;22.13;;;7.50;82.20;;;;;;4931249;29;20284;-85
2024/02/28 16:37:13;;;;;;;31.45;22.13;;;7.50;82.40;;;;;;4934974;29;20236;-85
2024/02/28 16:39:41;;;;;;;34.47;23.35;;;7.60;82.10;;;;;;4938108;29;20209;-87
2024/02/28 16:45:58;;;;;;;33.45;21.25;;;7.40;82.00;;;;;;4932543;29;20255;-85
2024/02/28 16:48:25;;;;;;;34.42;22.42;;;7.40;82.70;;;;;;4933331;29;20202;-87
2024/02/28 16:50:51;;;;;;;34.33;22.50;;;7.40;83.60;;;;;;4936683;29;20212;-87
2024/02/28 16:53:19;;;;;;;33.85;22.45;;;7.50;83.10;;;;;;4930063;29;20207;-84
2024/02/28 16:55:46;;;;;;;33.40;21.40;;;7.40;82.90;;;;;;4920908;29;20204;-85
2024/02/28 17:03:28;;;;;;;38.88;24.00;;;7.30;83.60;;;;;;5342161;23;20678;-84
2024/02/28 17:05:54;;;;;;;34.13;23.27;;;7.30;84.00;;;;;;4955450;28;20218;-87
2024/02/28 17:08:21;;;;;;;37.40;22.98;;;7.30;83.50;;;;;;4966930;28;20219;-85
2024/02/28 17:10:48;;;;;;;32.67;22.63;;;7.30;83.20;;;;;;4972667;28;20212;-85
2024/02/28 17:13:15;;;;;;;33.17;22.25;;;7.30;84.00;;;;;;4966487;28;20200;-83
2024/02/28 17:15:42;;;;;;;39.63;23.55;;;7.30;83.40;;;;;;4967615;28;20299;-88
2024/02/28 17:18:09;;;;;;;35.85;22.58;;;7.20;83.70;;;;;;4965342;28;20225;-86
2024/02/28 17:20:37;;;;;;;35.80;22.13;;;7.30;83.90;;;;;;4974253;28;20255;-86
2024/02/28 17:23:04;;;;;;;35.75;23.48;;;7.30;84.30;;;;;;4971437;28;20213;-85
2024/02/28 17:25:31;;;;;;;38.33;23.15;;;7.20;85.00;;;;;;4968700;28;20201;-84
2024/02/28 17:27:58;;;;;;;31.90;22.25;;;7.10;85.40;;;;;;4972250;28;20819;-84
2024/02/28 17:30:25;;;;;;;35.08;23.33;;;7.20;85.80;;;;;;4973766;28;20201;-84
2024/02/28 17:32:52;;;;;;;33.22;23.70;;;7.10;85.50;;;;;;4971338;28;20201;-84
2024/02/28 17:35:19;;;;;;;36.38;23.33;;;7.20;85.50;;;;;;4972545;28;20208;-83
2024/02/28 17:37:48;;;;;;;37.65;24.13;;;7.20;84.90;;;;;;4976857;28;20228;-84
2024/02/28 17:40:16;;;;;;;39.92;24.60;;;7.20;85.50;;;;;;4974480;28;20196;-85
2024/02/28 17:42:43;;;;;;;36.53;23.30;;;7.30;85.00;;;;;;4972019;28;20659;-85
2024/02/28 17:45:10;;;;;;;38.65;25.27;;;7.30;85.50;;;;;;4973604;28;20201;-83
2024/02/28 17:47:39;;;;;;;36.40;24.10;;;7.20;86.20;;;;;;4958298;28;20600;-84
2024/02/28 17:50:07;;;;;;;35.15;22.98;;;7.10;87.10;;;;;;4975642;28;20295;-84
2024/02/28 17:52:34;;;;;;;38.00;24.48;;;7.20;87.40;;;;;;4977689;28;20205;-87
2024/02/28 17:55:03;;;;;;;37.72;23.50;;;7.20;87.50;;;;;;4964999;28;20236;-90
2024/02/28 18:05:24;;;;;;;41.75;25.88;;;7.10;88.30;;;;;;5004706;23;20232;-84
2024/02/28 18:07:52;;;;;;;42.67;25.90;;;7.10;89.00;;;;;;4941341;29;20627;-87
2024/02/28 18:10:21;;;;;;;37.65;23.95;;;7.00;88.80;;;;;;4935881;28;20876;-82
2024/02/28 18:12:47;;;;;;;36.58;24.15;;;7.00;90.00;;;;;;4940536;29;20208;-85
2024/02/28 18:15:14;;;;;;;40.25;24.92;;;7.00;90.00;;;;;;4956109;29;20637;-86
2024/02/28 18:17:41;;;;;;;37.28;24.00;;;7.00;90.00;;;;;;4941118;29;20221;-87
2024/02/28 18:20:09;;;;;;;38.38;23.27;;;6.90;90.00;;;;;;4958309;29;20204;-87
2024/02/28 18:22:52;;;;;;;41.80;24.50;;;6.90;90.00;;;;;;4958584;29;20205;-87
2024/02/28 18:25:20;;;;;;;38.15;24.42;;;6.90;90.00;;;;;;4941303;29;20672;-87
2024/02/28 18:27:48;;;;;;;36.95;24.27;;;6.90;90.00;;;;;;4958320;29;20217;-86
2024/02/28 18:30:20;;;;;;;41.80;24.63;;;6.80;90.00;;;;;;4957823;29;20282;-84
2024/02/28 18:32:48;;;;;;;35.38;23.80;;;6.80;90.20;;;;;;4941329;29;20201;-88
2024/02/28 18:35:15;;;;;;;41.38;25.65;;;6.80;90.50;;;;;;4955146;28;20205;-84
2024/02/28 18:37:42;;;;;;;42.80;26.42;;;6.70;90.70;;;;;;4955116;28;20228;-84
2024/02/28 18:40:12;;;;;;;38.92;25.13;;;6.70;90.90;;;;;;4952822;28;20197;-86
2024/02/28 18:42:40;;;;;;;40.72;24.60;;;6.60;91.20;;;;;;4937998;29;20212;-87
2024/02/28 18:45:08;;;;;;;38.55;23.73;;;6.70;91.30;;;;;;4956204;28;20668;-87
2024/02/28 18:47:35;;;;;;;38.53;24.63;;;6.60;91.60;;;;;;4954504;29;20668;-87
2024/02/28 18:50:01;;;;;;;41.10;23.98;;;6.60;91.60;;;;;;4952875;28;20200;-86
2024/02/28 18:52:28;;;;;;;39.97;25.90;;;6.70;91.50;;;;;;4945052;29;20193;-84
2024/02/28 18:54:56;;;;;;;37.67;24.40;;;6.70;91.50;;;;;;4949982;29;20210;-86
2024/02/28 18:57:23;;;;;;;41.65;25.70;;;6.60;91.50;;;;;;4924948;29;20584;-85
2024/02/28 18:59:51;;;;;;;37.13;24.17;;;6.70;91.50;;;;;;4934926;29;20608;-86
2024/02/28 19:02:19;;;;;;;40.17;23.15;;;6.70;91.30;;;;;;4916577;29;20621;-85
2024/02/28 19:04:46;;;;;;;38.22;23.67;;;6.70;91.30;;;;;;4931332;29;20225;-87
2024/02/28 19:07:13;;;;;;;36.42;23.42;;;6.70;91.10;;;;;;4933791;29;20206;-85
2024/02/28 19:09:40;;;;;;;37.78;23.15;;;6.80;90.80;;;;;;4929563;29;20302;-90
2024/02/28 19:12:07;;;;;;;35.58;22.42;;;6.80;90.80;;;;;;4930688;29;20213;-85
2024/02/28 19:14:34;;;;;;;39.95;24.20;;;6.70;91.10;;;;;;4900005;29;20202;-85
2024/02/28 19:17:03;;;;;;;36.47;22.63;;;6.80;90.90;;;;;;4929483;29;20221;-86
2024/02/28 19:19:31;;;;;;;35.47;22.85;;;6.80;91.10;;;;;;4930218;29;20285;-85
2024/02/28 19:21:57;;;;;;;37.70;23.98;;;6.70;91.00;;;;;;4919438;29;20194;-84
2024/02/28 19:24:24;;;;;;;39.85;23.80;;;6.80;90.70;;;;;;4910377;29;20212;-85
2024/02/28 19:26:51;;;;;;;39.83;23.15;;;6.80;90.70;;;;;;4925265;29;20788;-85
2024/02/28 19:29:18;;;;;;;35.15;22.50;;;6.80;90.50;;;;;;4926917;29;20205;-85
2024/02/28 19:31:45;;;;;;;37.90;23.33;;;6.80;90.70;;;;;;4930445;29;20297;-90
2024/02/28 19:34:14;;;;;;;36.65;22.73;;;6.70;90.90;;;;;;4933480;29;20946;-85
2024/02/28 19:36:41;;;;;;;38.83;24.02;;;6.70;90.80;;;;;;4935239;29;20213;-86
2024/02/28 19:39:08;;;;;;;37.67;23.30;;;6.70;90.90;;;;;;4929092;29;20222;-86
2024/02/28 19:41:35;;;;;;;36.47;23.90;;;6.70;91.10;;;;;;4915735;29;20202;-84
2024/02/28 19:44:02;;;;;;;35.92;23.45;;;6.80;90.50;;;;;;4912480;29;20209;-90
2024/02/28 19:46:30;;;;;;;35.22;23.45;;;6.70;90.80;;;;;;4925020;29;20731;-85
2024/02/28 19:48:57;;;;;;;34.15;22.50;;;6.70;90.70;;;;;;4930191;29;20682;-86
2024/02/28 19:51:25;;;;;;;37.35;23.70;;;6.70;90.50;;;;;;4928807;29;20208;-86
2024/02/28 19:53:58;;;;;;;36.15;23.42;;;6.70;90.40;;;;;;4932597;29;20672;-91
2024/02/28 19:56:26;;;;;;;34.58;22.95;;;6.70;90.50;;;;;;4930625;29;20232;-85
2024/02/28 19:58:53;;;;;;;36.90;23.20;;;6.70;90.50;;;;;;4931494;29;20688;-84
2024/02/28 20:01:20;;;;;;;37.13;22.77;;;6.60;90.50;;;;;;4919955;29;20212;-87
2024/02/28 20:03:47;;;;;;;42.50;24.77;;;6.70;90.60;;;;;;4936619;29;20608;-85
2024/02/28 20:06:15;;;;;;;35.35;23.20;;;6.60;90.60;;;;;;4933227;29;20221;-87
2024/02/28 20:08:43;;;;;;;39.03;24.75;;;6.60;90.60;;;;;;4929789;29;20213;-86
2024/02/28 20:11:10;;;;;;;37.33;24.60;;;6.60;90.50;;;;;;4932154;29;20214;-86
2024/02/28 20:13:38;;;;;;;39.05;25.17;;;6.60;90.50;;;;;;4933056;29;20202;-86
2024/02/28 20:16:06;;;;;;;40.53;24.90;;;6.60;90.40;;;;;;4927316;29;20665;-85
2024/02/28 20:18:33;;;;;;;41.03;24.40;;;6.60;90.20;;;;;;4932360;29;20223;-85
2024/02/28 20:21:03;;;;;;;34.78;23.45;;;6.60;90.60;;;;;;4922889;29;20210;-86
2024/02/28 20:23:30;;;;;;;38.75;24.45;;;6.60;90.60;;;;;;4932699;29;20217;-86
2024/02/28 20:25:58;;;;;;;37.45;24.10;;;6.60;90.70;;;;;;4938992;29;20241;-87
2024/02/28 20:28:25;;;;;;;40.53;24.48;;;6.60;90.40;;;;;;4928240;29;20230;-86
2024/02/28 20:30:53;;;;;;;35.60;22.73;;;6.60;90.70;;;;;;4933866;29;20216;-85
2024/02/28 20:33:20;;;;;;;36.83;23.25;;;6.60;90.70;;;;;;4923024;29;20249;-85
2024/02/28 20:35:47;;;;;;;33.47;22.17;;;6.70;90.30;;;;;;4936947;29;20202;-86
2024/02/28 20:38:15;;;;;;;37.00;23.38;;;6.70;90.00;;;;;;4923337;29;20225;-85
2024/02/28 20:40:42;;;;;;;37.33;24.20;;;6.70;90.00;;;;;;4927973;29;20202;-86
2024/02/28 20:43:11;;;;;;;39.67;24.35;;;6.60;90.00;;;;;;4938961;29;20208;-87
2024/02/28 20:45:38;;;;;;;37.97;24.48;;;6.50;89.90;;;;;;4926527;29;20213;-85
2024/02/28 20:48:06;;;;;;;39.80;24.67;;;6.60;90.00;;;;;;4917063;29;20210;-86
2024/02/28 20:50:34;;;;;;;37.85;24.08;;;6.60;90.00;;;;;;4930169;29;20203;-86
2024/02/28 20:53:02;;;;;;;39.03;24.65;;;6.60;90.00;;;;;;4918315;29;20206;-87
2024/02/28 20:55:30;;;;;;;41.58;23.85;;;6.60;90.00;;;;;;4932163;29;21755;-87
2024/02/28 20:58:04;;;;;;;37.70;24.83;;;6.60;90.00;;;;;;4914859;29;20234;-86
2024/02/28 21:00:35;;;;;;;39.90;25.00;;;6.50;90.10;;;;;;4933276;29;20261;-88
2024/02/28 21:03:03;;;;;;;80.65;50.55;;;6.60;90.20;;;;;;4929195;29;21044;-86
2024/02/28 21:05:30;;;;;;;37.90;24.52;;;6.60;90.10;;;;;;4933857;29;20204;-87
2024/02/28 21:07:57;;;;;;;36.42;23.42;;;6.60;90.20;;;;;;4933175;29;20625;-87
2024/02/28 21:10:25;;;;;;;38.78;24.48;;;6.60;90.50;;;;;;4918518;29;20203;-86
2024/02/28 21:12:54;;;;;;;38.10;23.77;;;6.60;90.30;;;;;;4933713;29;20212;-86
2024/02/28 21:15:22;;;;;;;37.58;24.08;;;6.70;90.00;;;;;;4934311;29;20257;-86
2024/02/28 21:17:50;;;;;;;44.03;25.30;;;6.70;90.20;;;;;;4911852;29;20288;-87
2024/02/28 21:20:17;;;;;;;38.20;24.17;;;6.70;90.40;;;;;;4937994;29;20622;-85
2024/02/28 21:22:44;;;;;;;41.50;25.55;;;6.60;90.40;;;;;;4934379;29;20210;-86
2024/02/28 21:25:11;;;;;;;40.53;25.33;;;6.60;90.70;;;;;;4928682;29;20206;-86
2024/02/28 21:27:38;;;;;;;41.78;25.60;;;6.60;90.80;;;;;;4930962;29;20209;-86
2024/02/28 21:30:07;;;;;;;37.38;24.90;;;6.60;90.80;;;;;;4917202;29;20216;-88
2024/02/28 21:32:38;;;;;;;39.10;24.80;;;6.50;90.50;;;;;;4930668;29;20216;-86
2024/02/28 21:35:11;;;;;;;40.97;25.27;;;6.60;90.70;;;;;;4936983;29;20270;-88
2024/02/28 21:37:39;;;;;;;36.65;24.58;;;6.60;90.50;;;;;;4930861;29;20600;-86
2024/02/28 21:40:07;;;;;;;40.53;25.63;;;6.50;90.60;;;;;;4935101;29;20573;-87
2024/02/28 21:42:34;;;;;;;37.00;23.92;;;6.50;90.50;;;;;;4934188;29;20230;-84
2024/02/28 21:45:01;;;;;;;39.53;23.98;;;6.50;90.30;;;;;;4935523;29;20229;-86
2024/02/28 21:47:28;;;;;;;39.55;24.83;;;6.50;89.90;;;;;;4934178;29;20211;-86
2024/02/28 21:49:55;;;;;;;40.72;25.25;;;6.50;90.00;;;;;;4932025;29;20288;-87
2024/02/28 21:52:23;;;;;;;37.13;24.13;;;6.40;90.40;;;;;;4938735;29;20665;-86
2024/02/28 21:54:51;;;;;;;38.78;23.85;;;6.40;90.50;;;;;;4937674;29;20646;-87
2024/02/28 21:57:18;;;;;;;40.08;25.05;;;6.50;90.10;;;;;;4930010;29;20220;-87
2024/02/28 21:59:45;;;;;;;41.28;24.80;;;6.50;90.00;;;;;;4938533;29;20225;-86
2024/02/28 22:02:12;;;;;;;41.72;24.88;;;6.50;89.90;;;;;;4912795;29;20316;-87
2024/02/28 22:04:39;;;;;;;44.53;26.52;;;6.40;90.10;;;;;;4923700;29;20210;-87
2024/02/28 22:07:06;;;;;;;40.13;24.20;;;6.50;89.90;;;;;;4930995;29;20219;-87
2024/02/28 22:09:34;;;;;;;38.40;24.27;;;6.40;89.80;;;;;;4931419;29;20202;-87
2024/02/28 22:12:01;;;;;;;40.72;24.70;;;6.50;89.90;;;;;;4913153;29;20221;-86
2024/02/28 22:14:28;;;;;;;38.47;24.52;;;6.50;89.90;;;;;;4936978;29;20292;-87
2024/02/28 22:16:55;;;;;;;42.95;25.83;;;6.50;90.00;;;;;;4933958;29;20208;-87
2024/02/28 22:19:22;;;;;;;43.70;25.83;;;6.40;89.80;;;;;;4934494;29;20618;-87
2024/02/28 22:21:49;;;;;;;41.15;24.80;;;6.40;89.90;;;;;;4942046;29;20690;-87
2024/02/28 22:24:16;;;;;;;38.50;24.10;;;6.30;89.80;;;;;;4911904;29;20210;-88
2024/02/28 22:26:45;;;;;;;42.42;25.20;;;6.40;89.90;;;;;;4929542;29;20209;-88